Terminal Aerodrome Forecast
Issued by NWS

Home | Current Version | Previous Version | Text Only | Print | Product List | Glossary Off
Versions: 1 2 3 4 5 6 7 8 9 10 11 12

000
FTUS45 KGGW 220520
TAFSDY
TAF
KSDY 220520Z 2206/2306 VRB04KT P6SM SKC
     FM230000 VRB03KT P6SM FEW200
     FM230300 VRB03KT P6SM FEW050=

USA.gov is the U.S. government's official web portal to all federal, state and local government web resources and services.